Time;durP1;ratioP1;P1;durP2;ratioP2;P2;SDS_P1;SDS_P2;PMS_P1;PMS_P2;Temp;Humidity;BMP_temperature;BMP_pressure;BME280_temperature;BME280_humidity;BME280_pressure;Samples;Min_cycle;Max_cycle;Signal;HPM_P1;HPM_P2
2023/05/02 00:00:44;;;;;;;7.05;2.30;;;;;;;9.23;52.95;99807.81;4937870;29;20054;-68
2023/05/02 00:03:11;;;;;;;4.05;2.45;;;;;;;9.39;53.09;99816.00;4924122;29;20055;-68
2023/05/02 00:05:37;;;;;;;4.38;2.83;;;;;;;9.24;53.11;99817.44;4935960;28;20054;-69
2023/05/02 00:08:04;;;;;;;9.05;3.47;;;;;;;9.41;53.17;99818.50;4942095;28;20383;-68
2023/05/02 00:10:30;;;;;;;5.63;3.08;;;;;;;9.19;53.06;99817.06;4958810;28;20072;-68
2023/05/02 00:12:56;;;;;;;5.32;2.97;;;;;;;9.36;53.16;99823.41;4942384;28;20132;-68
2023/05/02 00:15:22;;;;;;;6.57;2.72;;;;;;;9.19;53.09;99824.16;4941319;28;20522;-69
2023/05/02 00:17:48;;;;;;;5.20;2.50;;;;;;;9.16;53.04;99835.91;4961886;28;20145;-69
2023/05/02 00:20:16;;;;;;;3.38;2.63;;;;;;;9.15;52.91;99834.22;5001106;28;20167;-69
2023/05/02 00:22:41;;;;;;;2.67;2.10;;;;;;;9.13;53.02;99838.84;4972413;28;20060;-69
2023/05/02 00:25:09;;;;;;;2.90;2.53;;;;;;;9.16;53.21;99838.56;5004223;28;20041;-69
2023/05/02 00:27:35;;;;;;;3.60;2.15;;;;;;;9.25;53.31;99844.78;5017156;28;20134;-69
2023/05/02 00:30:01;;;;;;;5.50;2.20;;;;;;;9.21;53.04;99849.53;5024620;28;20040;-69
2023/05/02 00:32:29;;;;;;;3.53;2.30;;;;;;;9.02;52.94;99848.75;5025532;28;20515;-69
2023/05/02 00:34:56;;;;;;;5.45;2.00;;;;;;;8.99;53.08;99852.53;5040986;28;20040;-69
2023/05/02 00:37:25;;;;;;;3.42;2.33;;;;;;;9.26;53.27;99852.59;5057852;28;20063;-69
2023/05/02 00:39:51;;;;;;;5.18;2.75;;;;;;;8.96;52.97;99850.16;5041012;28;20102;-68
2023/05/02 00:42:17;;;;;;;5.22;2.10;;;;;;;8.94;52.98;99854.75;5024454;28;20052;-69
2023/05/02 00:44:43;;;;;;;5.47;2.10;;;;;;;8.93;52.86;99858.41;5023531;28;20081;-69
2023/05/02 00:47:09;;;;;;;2.93;1.90;;;;;;;9.00;52.81;99859.50;5023368;28;20383;-68
2023/05/02 00:49:35;;;;;;;4.97;2.20;;;;;;;8.89;53.16;99861.47;5006738;28;20056;-68
2023/05/02 00:52:01;;;;;;;3.35;2.08;;;;;;;8.90;53.18;99864.00;5006862;28;20044;-68
2023/05/02 00:54:31;;;;;;;4.75;2.08;;;;;;;9.10;53.21;99862.13;5023421;28;20292;-68
2023/05/02 00:56:58;;;;;;;4.23;2.20;;;;;;;8.90;53.15;99871.94;5006829;28;20098;-69
2023/05/02 00:59:25;;;;;;;4.23;2.60;;;;;;;9.08;53.19;99864.91;5006807;28;20052;-68
2023/05/02 01:02:22;;;;;;;6.78;2.25;;;;;;;9.26;53.20;99871.13;5023188;28;20060;-68
2023/05/02 01:05:07;;;;;;;4.13;2.30;;;;;;;8.85;53.01;99873.31;5039185;28;20052;-69
2023/05/02 01:07:41;;;;;;;8.57;2.30;;;;;;;9.12;53.40;99873.44;5023055;28;20056;-68
2023/05/02 01:10:24;;;;;;;3.50;2.17;;;;;;;9.22;53.26;99882.19;5022967;28;20049;-69
2023/05/02 01:12:59;;;;;;;7.00;2.10;;;;;;;9.17;53.18;99889.72;5039245;28;20082;-68
2023/05/02 01:15:25;;;;;;;2.83;2.00;;;;;;;8.84;52.93;99891.00;5027964;28;20151;-69
2023/05/02 01:17:55;;;;;;;4.00;2.60;;;;;;;9.02;53.19;99888.50;5040323;28;20547;-68
2023/05/02 01:20:23;;;;;;;3.07;2.03;;;;;;;9.03;53.23;99898.94;4951557;28;20049;-68
2023/05/02 01:22:49;;;;;;;7.10;2.23;;;;;;;8.90;52.98;99897.56;5016125;28;20049;-68
2023/05/02 01:25:15;;;;;;;5.67;2.13;;;;;;;8.70;52.94;99893.25;5000298;28;20056;-68
2023/05/02 01:28:01;;;;;;;5.73;2.30;;;;;;;9.21;53.34;99907.81;4999743;28;20516;-68
2023/05/02 01:30:29;;;;;;;5.78;2.20;;;;;;;8.83;53.36;99902.59;4999624;28;20045;-68
2023/05/02 01:32:57;;;;;;;2.37;2.00;;;;;;;8.96;53.63;99902.31;4999913;28;20051;-68
2023/05/02 01:35:24;;;;;;;6.10;2.30;;;;;;;8.73;53.48;99901.78;4999582;28;20064;-68
2023/05/02 01:37:52;;;;;;;4.20;2.20;;;;;;;8.90;53.42;99911.66;4983405;28;20041;-68
2023/05/02 01:40:21;;;;;;;5.10;2.17;;;;;;;8.85;53.56;99915.69;4983534;28;20621;-69
2023/05/02 01:42:51;;;;;;;4.47;2.20;;;;;;;9.04;53.87;99916.50;4999780;28;20052;-69
2023/05/02 01:45:18;;;;;;;3.50;2.10;;;;;;;8.85;53.42;99921.84;4999889;28;20132;-68
2023/05/02 01:47:45;;;;;;;3.95;1.92;;;;;;;8.87;53.19;99922.53;4999769;28;20057;-68
2023/05/02 01:50:15;;;;;;;6.17;2.17;;;;;;;9.01;53.58;99930.03;4984278;28;20056;-68
2023/05/02 01:52:41;;;;;;;5.18;2.47;;;;;;;8.66;53.24;99918.34;5023381;28;20121;-69
2023/05/02 01:55:11;;;;;;;7.40;2.50;;;;;;;8.99;53.65;99929.34;5039786;28;20048;-68
2023/05/02 01:57:39;;;;;;;5.67;2.00;;;;;;;9.03;53.81;99935.19;5015206;28;20057;-69
2023/05/02 02:00:07;;;;;;;3.30;2.20;;;;;;;8.97;53.57;99941.06;5015232;28;20136;-69
2023/05/02 02:02:41;;;;;;;6.43;2.17;;;;;;;9.04;53.25;99942.19;4999668;28;20427;-68
2023/05/02 02:05:09;;;;;;;5.78;2.80;;;;;;;8.96;53.65;99937.59;4992257;28;20124;-69
2023/05/02 02:07:37;;;;;;;2.30;2.00;;;;;;;8.79;53.51;99958.63;4976378;28;20116;-69
2023/05/02 02:10:03;;;;;;;2.70;2.10;;;;;;;8.79;53.76;99948.88;4975967;28;20072;-68
2023/05/02 02:12:41;;;;;;;6.13;2.30;;;;;;;9.11;53.73;99953.88;4976381;28;20064;-68
2023/05/02 02:15:17;;;;;;;3.10;2.13;;;;;;;9.10;53.57;99955.69;4960082;28;20105;-68
2023/05/02 02:18:10;;;;;;;5.03;2.40;;;;;;;9.21;53.72;99957.38;4928199;28;20143;-69
2023/05/02 02:20:36;;;;;;;3.20;2.05;;;;;;;8.79;53.42;99954.19;4959949;28;20082;-68
2023/05/02 02:23:05;;;;;;;4.63;2.37;;;;;;;9.09;53.57;99969.06;4958745;28;20058;-69
2023/05/02 02:25:33;;;;;;;6.65;2.10;;;;;;;9.09;53.55;99982.31;4943550;28;20042;-69
2023/05/02 02:28:00;;;;;;;2.33;1.97;;;;;;;9.00;52.87;99973.41;4975976;28;20053;-68
2023/05/02 02:30:28;;;;;;;3.67;2.00;;;;;;;9.13;52.88;99973.97;4985928;28;20049;-68
2023/05/02 02:32:54;;;;;;;5.23;2.00;;;;;;;8.80;52.91;99986.78;4985450;28;20041;-69
2023/05/02 02:35:21;;;;;;;3.28;2.35;;;;;;;8.95;53.01;99986.22;5006018;28;20463;-68
2023/05/02 02:38:18;;;;;;;4.03;2.05;;;;;;;9.16;52.84;99992.25;5039212;28;20512;-68
2023/05/02 02:40:48;;;;;;;3.92;2.55;;;;;;;9.05;52.67;99996.81;5038783;28;20101;-68
2023/05/02 02:43:34;;;;;;;4.40;2.60;;;;;;;9.21;52.64;99997.13;5014540;28;20144;-68
2023/05/02 02:46:37;;;;;;;4.70;3.50;;;;;;;9.28;52.41;100009.66;4998015;28;20057;-69
2023/05/02 02:49:26;;;;;;;5.93;2.28;;;;;;;9.27;52.57;100012.44;5014390;28;20037;-69
2023/05/02 02:52:21;;;;;;;3.22;2.60;;;;;;;9.07;52.52;100010.78;5014286;28;20041;-69
2023/05/02 02:54:57;;;;;;;3.20;2.20;;;;;;;9.06;52.85;100009.94;5004744;28;20097;-68
2023/05/02 02:57:32;;;;;;;4.22;2.08;;;;;;;8.97;52.72;99994.88;5014631;28;20057;-69
2023/05/02 02:59:58;;;;;;;2.63;2.40;;;;;;;8.71;52.36;100014.06;5014258;28;20140;-69
2023/05/02 03:02:28;;;;;;;3.53;2.60;;;;;;;9.06;52.51;100015.22;5014334;28;20132;-69
2023/05/02 03:04:56;;;;;;;4.32;2.53;;;;;;;9.04;52.07;100021.66;4998249;28;20053;-69
2023/05/02 03:07:22;;;;;;;4.25;2.88;;;;;;;8.87;51.84;100012.59;4981731;28;20143;-69
2023/05/02 03:09:49;;;;;;;4.60;3.00;;;;;;;8.93;51.85;100019.97;4997531;28;20491;-68
2023/05/02 03:12:22;;;;;;;4.67;2.90;;;;;;;9.05;53.62;100023.31;4982375;28;20048;-68
2023/05/02 03:14:49;;;;;;;4.60;3.00;;;;;;;9.09;52.97;100028.19;5016686;28;20056;-68
2023/05/02 03:17:16;;;;;;;4.50;3.00;;;;;;;9.20;53.25;100035.16;5022190;28;20036;-68
2023/05/02 03:19:42;;;;;;;7.13;3.00;;;;;;;9.29;53.45;100035.19;5021459;28;20464;-69
2023/05/02 03:22:10;;;;;;;4.87;3.20;;;;;;;9.54;53.16;100031.09;5037523;28;20044;-69
2023/05/02 03:24:36;;;;;;;5.28;3.22;;;;;;;9.51;53.01;100036.69;5054561;28;20352;-69
2023/05/02 03:27:04;;;;;;;5.22;2.88;;;;;;;9.60;52.73;100034.03;5017057;28;20044;-69
2023/05/02 03:29:37;;;;;;;4.32;2.88;;;;;;;9.69;52.41;100043.78;5003221;28;20058;-69
2023/05/02 03:32:04;;;;;;;5.72;2.85;;;;;;;9.75;52.10;100040.56;5000861;28;20087;-70
2023/05/02 03:34:31;;;;;;;7.30;2.72;;;;;;;9.89;50.89;100041.91;4976934;28;20046;-70
2023/05/02 03:36:57;;;;;;;4.25;2.65;;;;;;;9.88;50.30;100049.06;4961686;28;20053;-70
2023/05/02 03:39:23;;;;;;;5.95;3.35;;;;;;;9.96;49.84;100046.50;4945832;28;20064;-70
2023/05/02 03:41:50;;;;;;;4.68;3.08;;;;;;;10.01;49.67;100049.56;4961887;28;20050;-69
2023/05/02 03:44:19;;;;;;;6.72;3.25;;;;;;;10.10;49.87;100059.34;4961717;28;20083;-69
2023/05/02 03:46:46;;;;;;;3.85;3.08;;;;;;;10.27;50.43;100067.53;4945740;28;20140;-70
2023/05/02 03:49:13;;;;;;;5.63;3.13;;;;;;;10.23;50.36;100066.97;4945646;28;20058;-69
2023/05/02 03:51:42;;;;;;;6.38;3.45;;;;;;;10.31;49.56;100071.56;4962319;28;20045;-69
2023/05/02 03:54:09;;;;;;;4.18;3.10;;;;;;;10.36;49.87;100069.31;4945834;28;20163;-69
2023/05/02 03:56:38;;;;;;;6.75;3.40;;;;;;;10.34;49.68;100071.28;4978128;28;20384;-69
2023/05/02 03:59:27;;;;;;;5.15;3.30;;;;;;;10.43;49.39;100078.34;5032971;28;20060;-71
2023/05/02 04:01:55;;;;;;;6.13;3.30;;;;;;;10.49;49.28;100081.28;5001069;28;20040;-69
2023/05/02 04:04:29;;;;;;;5.38;3.05;;;;;;;10.54;49.04;100089.63;5003261;28;20040;-69
2023/05/02 04:06:56;;;;;;;3.90;3.05;;;;;;;10.62;48.66;100097.72;5021122;28;20040;-70
2023/05/02 04:09:24;;;;;;;10.25;3.20;;;;;;;10.65;49.10;100091.25;5037289;28;20506;-70
2023/05/02 04:12:27;;;;;;;5.60;4.20;;;;;;;11.29;49.71;100094.63;5056104;28;20490;-71
2023/05/02 04:14:55;;;;;;;5.43;3.92;;;;;;;10.81;49.30;100097.59;5055909;28;20044;-71
2023/05/02 04:17:24;;;;;;;7.88;3.92;;;;;;;10.93;49.32;100088.44;5015650;28;20415;-73
2023/05/02 04:19:51;;;;;;;5.82;3.45;;;;;;;10.98;48.83;100096.81;5013380;28;20092;-75
2023/05/02 04:22:21;;;;;;;9.13;3.67;;;;;;;11.08;48.45;100096.75;5001190;28;20056;-78
2023/05/02 04:24:52;;;;;;;7.03;3.50;;;;;;;11.25;48.13;100099.44;4982749;28;20045;-75
2023/05/02 04:27:18;;;;;;;6.85;3.58;;;;;;;11.28;47.51;100103.59;5039691;28;20118;-70
2023/05/02 04:29:48;;;;;;;8.27;3.40;;;;;;;11.69;48.07;100103.84;4979823;28;20045;-70
2023/05/02 04:32:15;;;;;;;11.53;4.93;;;;;;;11.58;46.98;100105.88;4999609;28;20071;-69
2023/05/02 04:34:41;;;;;;;8.93;3.53;;;;;;;11.64;46.79;100111.47;5014872;28;20374;-70
2023/05/02 04:37:08;;;;;;;9.75;3.20;;;;;;;11.75;46.22;100119.22;5015202;28;20079;-69
2023/05/02 04:39:35;;;;;;;5.35;3.30;;;;;;;11.86;45.56;100124.28;5000216;28;20041;-70
2023/05/02 04:42:05;;;;;;;5.05;3.22;;;;;;;11.99;45.57;100126.56;5015232;28;20044;-68
2023/05/02 04:44:36;;;;;;;20.77;9.07;;;;;;;12.08;46.46;100125.63;5015386;28;20483;-69
2023/05/02 04:47:04;;;;;;;10.57;5.97;;;;;;;12.20;47.08;100124.38;5018735;28;20139;-69
2023/05/02 04:49:31;;;;;;;7.95;4.13;;;;;;;12.36;46.54;100135.09;5042114;28;20057;-68
2023/05/02 04:51:57;;;;;;;5.13;2.75;;;;;;;12.45;45.53;100136.00;5044967;28;20051;-69
2023/05/02 04:54:23;;;;;;;4.88;2.03;;;;;;;12.52;42.88;100145.88;5043272;28;20044;-68
2023/05/02 04:56:49;;;;;;;2.78;1.75;;;;;;;12.66;40.88;100147.09;5076484;28;20036;-69
2023/05/02 04:59:16;;;;;;;4.00;1.52;;;;;;;12.76;39.35;100150.50;5040717;28;20047;-70
2023/05/02 05:01:42;;;;;;;2.45;1.63;;;;;;;12.91;38.98;100147.09;5058303;28;20513;-70
2023/05/02 05:04:09;;;;;;;3.90;2.13;;;;;;;12.99;38.78;100149.75;5076234;28;20102;-70
2023/05/02 05:06:35;;;;;;;2.60;1.48;;;;;;;13.07;38.72;100154.31;5058165;28;20043;-69
2023/05/02 05:09:02;;;;;;;1.85;1.38;;;;;;;13.17;38.67;100147.88;5059365;28;20500;-70
2023/05/02 05:11:28;;;;;;;3.22;1.20;;;;;;;13.23;38.53;100147.22;5042880;28;20044;-68
2023/05/02 05:13:57;;;;;;;3.00;1.20;;;;;;;13.49;37.76;100155.09;5059379;28;20209;-69
2023/05/02 05:16:24;;;;;;;2.40;0.95;;;;;;;13.37;37.50;100154.59;5043002;28;20040;-69
2023/05/02 05:18:52;;;;;;;2.15;1.20;;;;;;;13.44;36.79;100158.28;5076123;28;20172;-69
2023/05/02 05:21:19;;;;;;;2.05;1.25;;;;;;;13.65;37.23;100156.97;5076310;28;20364;-69
2023/05/02 05:23:47;;;;;;;5.30;1.20;;;;;;;13.54;36.48;100155.47;5054809;28;20056;-69
2023/05/02 05:26:18;;;;;;;3.15;1.15;;;;;;;13.64;35.82;100149.97;5022796;28;20110;-69
2023/05/02 05:28:47;;;;;;;2.13;1.33;;;;;;;13.70;36.17;100162.66;5038519;28;20067;-70
2023/05/02 05:31:39;;;;;;;4.00;1.25;;;;;;;14.25;35.89;100161.88;5021835;28;20106;-71
2023/05/02 05:34:05;;;;;;;2.85;1.33;;;;;;;13.79;35.42;100161.66;5005304;28;20090;-73
2023/05/02 05:36:32;;;;;;;4.13;1.30;;;;;;;13.93;35.57;100161.81;5021326;28;20398;-70
2023/05/02 05:39:00;;;;;;;2.90;1.20;;;;;;;13.99;35.23;100163.81;5021886;28;20037;-72
2023/05/02 05:41:27;;;;;;;1.25;1.00;;;;;;;14.09;34.77;100161.00;5021699;28;20479;-74
2023/05/02 05:44:05;;;;;;;2.35;1.17;;;;;;;14.21;34.29;100162.31;5020326;28;20056;-72
2023/05/02 05:46:32;;;;;;;2.13;1.25;;;;;;;14.38;34.27;100166.66;5051853;28;20040;-70
2023/05/02 05:48:59;;;;;;;1.70;0.90;;;;;;;14.63;33.79;100162.94;5004229;28;20049;-69
2023/05/02 05:51:27;;;;;;;1.35;0.93;;;;;;;14.59;32.86;100156.28;5036632;28;20040;-70
2023/05/02 05:53:54;;;;;;;1.52;0.90;;;;;;;14.77;32.28;100160.41;5018302;28;20110;-70
2023/05/02 05:56:21;;;;;;;3.90;1.08;;;;;;;14.92;32.27;100163.19;5003069;28;20095;-69
2023/05/02 05:58:55;;;;;;;2.35;1.00;;;;;;;15.13;32.05;100163.44;5019738;28;20097;-70
2023/05/02 06:01:20;;;;;;;1.40;0.90;;;;;;;15.13;31.95;100161.59;5040021;28;20086;-69
2023/05/02 06:03:47;;;;;;;4.70;0.95;;;;;;;15.41;32.21;100155.81;5058581;28;20367;-68
2023/05/02 06:06:15;;;;;;;1.23;1.10;;;;;;;15.39;31.17;100163.19;5056463;28;20036;-69
2023/05/02 06:08:41;;;;;;;1.65;1.00;;;;;;;15.46;31.09;100159.63;5048679;28;20047;-69
2023/05/02 06:11:10;;;;;;;1.48;1.20;;;;;;;15.89;31.58;100155.47;5054585;28;20036;-69
2023/05/02 06:13:37;;;;;;;4.22;1.30;;;;;;;15.72;31.34;100168.16;5039980;28;20082;-69
2023/05/02 06:16:04;;;;;;;1.83;1.13;;;;;;;15.85;30.56;100157.66;5057052;28;20043;-69
2023/05/02 06:18:30;;;;;;;3.90;1.17;;;;;;;15.97;30.52;100156.25;5055160;28;20127;-67
2023/05/02 06:20:56;;;;;;;1.90;1.10;;;;;;;16.09;30.17;100162.84;5073889;28;20537;-69
2023/05/02 06:23:22;;;;;;;1.63;1.00;;;;;;;16.16;29.00;100153.06;5056815;28;20105;-69
2023/05/02 06:25:50;;;;;;;1.23;0.82;;;;;;;16.33;29.03;100157.25;5090239;28;20143;-69
2023/05/02 06:28:16;;;;;;;3.47;1.00;;;;;;;16.38;28.75;100154.03;5073421;28;20046;-69
2023/05/02 06:30:42;;;;;;;0.88;0.80;;;;;;;16.43;28.83;100155.16;5073348;28;20040;-68
2023/05/02 06:33:08;;;;;;;4.00;0.90;;;;;;;16.56;28.42;100160.75;5056859;28;20036;-69
2023/05/02 06:35:34;;;;;;;2.25;1.00;;;;;;;16.73;28.32;100161.41;5073514;28;20402;-68
2023/05/02 06:38:00;;;;;;;0.77;0.77;;;;;;;16.83;27.85;100160.13;5055934;28;20044;-68
2023/05/02 06:40:26;;;;;;;2.15;1.13;;;;;;;16.94;27.52;100160.66;5067495;28;20521;-68
2023/05/02 06:42:52;;;;;;;1.42;0.80;;;;;;;17.00;29.09;100162.59;5071236;28;20123;-68
2023/05/02 06:45:17;;;;;;;5.13;1.20;;;;;;;17.17;27.26;100162.22;5073381;28;20048;-67
2023/05/02 06:47:43;;;;;;;3.70;1.10;;;;;;;17.27;26.78;100160.06;5036519;28;20082;-68
2023/05/02 06:50:10;;;;;;;1.67;0.93;;;;;;;17.44;26.75;100156.16;5056778;28;20043;-69
2023/05/02 06:52:36;;;;;;;9.52;1.00;;;;;;;17.46;26.36;100161.34;5073019;28;20046;-68
2023/05/02 06:55:01;;;;;;;2.33;0.90;;;;;;;17.61;26.25;100165.66;5074093;28;20126;-69
2023/05/02 06:57:30;;;;;;;2.30;1.10;;;;;;;17.79;25.88;100159.88;5057042;28;20044;-68
2023/05/02 06:59:56;;;;;;;4.70;0.90;;;;;;;18.15;25.56;100155.22;5030983;28;20043;-69
2023/05/02 07:02:22;;;;;;;2.40;1.10;;;;;;;18.28;25.17;100168.78;5072354;28;20127;-69
2023/05/02 07:04:48;;;;;;;2.55;1.00;;;;;;;18.57;24.87;100165.09;5056152;28;20139;-69
2023/05/02 07:07:17;;;;;;;2.70;1.15;;;;;;;19.02;24.40;100161.88;5039637;28;20043;-70
2023/05/02 07:09:43;;;;;;;4.03;1.20;;;;;;;19.78;23.67;100170.47;5039955;28;20051;-68
2023/05/02 07:12:10;;;;;;;2.15;1.20;;;;;;;20.68;22.49;100159.91;5071896;28;20636;-69
2023/05/02 07:14:35;;;;;;;2.88;1.00;;;;;;;22.17;21.44;100154.09;5036276;28;20036;-68
2023/05/02 07:17:01;;;;;;;2.15;0.93;;;;;;;23.96;19.35;100159.81;5054850;28;20556;-68
2023/05/02 07:19:27;;;;;;;5.07;1.20;;;;;;;26.26;16.84;100153.19;5053735;28;20051;-69
2023/05/02 07:21:53;;;;;;;3.53;1.00;;;;;;;28.97;14.82;100150.91;5053730;28;20501;-69
2023/05/02 07:24:19;;;;;;;1.42;1.00;;;;;;;31.41;12.52;100167.91;5053764;28;20060;-69
2023/05/02 07:26:44;;;;;;;4.78;0.73;;;;;;;33.42;11.20;100167.09;5036553;28;20055;-69
2023/05/02 07:29:10;;;;;;;2.53;1.00;;;;;;;35.28;9.63;100164.06;5036798;28;20051;-70
2023/05/02 07:31:38;;;;;;;5.53;1.00;;;;;;;36.55;8.88;100153.41;5020269;28;20052;-71
2023/05/02 07:34:04;;;;;;;3.58;0.85;;;;;;;37.77;7.83;100159.94;5037315;28;20545;-71
2023/05/02 07:36:30;;;;;;;1.88;0.80;;;;;;;38.51;7.07;100156.69;5037102;28;20136;-72
2023/05/02 07:38:56;;;;;;;5.65;1.00;;;;;;;39.02;7.05;100153.00;5036806;28;20461;-71
2023/05/02 07:41:22;;;;;;;2.17;1.05;;;;;;;39.91;6.60;100155.44;5053558;28;20079;-71
2023/05/02 07:43:48;;;;;;;4.07;1.10;;;;;;;40.62;6.29;100151.34;5036606;28;20102;-72
2023/05/02 07:46:14;;;;;;;4.63;1.33;;;;;;;40.98;6.04;100147.84;5008229;28;20131;-72
2023/05/02 07:48:41;;;;;;;6.63;1.58;;;;;;;41.12;5.84;100142.78;5056367;28;20139;-72
2023/05/02 07:51:08;;;;;;;2.33;1.15;;;;;;;41.47;5.62;100130.75;5056814;28;20047;-72
2023/05/02 07:53:35;;;;;;;2.50;1.10;;;;;;;41.70;5.66;100140.28;5056459;28;20040;-72
2023/05/02 07:56:03;;;;;;;4.13;0.80;;;;;;;42.18;4.70;100144.13;5056669;28;20062;-72
2023/05/02 07:58:29;;;;;;;1.13;0.80;;;;;;;42.21;5.14;100133.03;5056623;28;20075;-72
2023/05/02 08:00:54;;;;;;;2.10;0.63;;;;;;;42.94;4.27;100130.66;5056394;28;20079;-72
2023/05/02 08:03:20;;;;;;;1.33;0.85;;;;;;;43.57;4.00;100135.06;5056682;28;20055;-72
2023/05/02 08:05:47;;;;;;;7.28;1.00;;;;;;;43.84;3.98;100128.44;5056374;28;20040;-72
2023/05/02 08:08:13;;;;;;;2.45;0.80;;;;;;;44.27;3.91;100127.41;5056233;28;20047;-72
2023/05/02 08:10:40;;;;;;;3.05;1.20;;;;;;;44.62;4.04;100123.28;5015577;28;20056;-71
2023/05/02 08:13:06;;;;;;;3.50;1.00;;;;;;;44.82;3.52;100123.22;5014627;28;20057;-71
2023/05/02 08:15:32;;;;;;;3.90;1.50;;;;;;;44.73;3.36;100112.28;4999134;28;20033;-71
2023/05/02 08:17:59;;;;;;;6.93;1.30;;;;;;;44.91;3.16;100120.97;5047659;28;20143;-71
2023/05/02 08:20:25;;;;;;;2.25;0.85;;;;;;;45.39;3.30;100111.78;5030438;28;20489;-72
2023/05/02 08:22:51;;;;;;;2.15;0.80;;;;;;;45.67;3.45;100112.97;5001725;28;20049;-74
2023/05/02 08:25:17;;;;;;;4.55;0.73;;;;;;;45.93;3.25;100110.13;4985983;28;20049;-73
2023/05/02 08:27:43;;;;;;;4.05;0.80;;;;;;;46.13;2.96;100111.63;5017894;28;20075;-72
2023/05/02 08:30:11;;;;;;;2.35;1.00;;;;;;;45.41;3.14;100103.81;5019304;28;20045;-72
2023/05/02 08:32:38;;;;;;;7.07;1.10;;;;;;;45.65;2.98;100101.34;5003368;28;20136;-70
2023/05/02 08:35:05;;;;;;;4.50;1.23;;;;;;;45.79;3.07;100120.41;5018964;28;20139;-70
2023/05/02 08:37:32;;;;;;;3.60;0.65;;;;;;;46.17;2.38;100100.44;5019375;28;20056;-70
2023/05/02 08:39:59;;;;;;;4.93;0.73;;;;;;;46.93;2.18;100098.81;5034969;28;20398;-70
2023/05/02 08:42:26;;;;;;;4.57;0.80;;;;;;;46.83;2.38;100103.13;5017651;28;20041;-70
2023/05/02 08:44:53;;;;;;;3.05;0.93;;;;;;;47.27;1.88;100091.84;5017947;28;20890;-70
2023/05/02 08:47:20;;;;;;;2.10;1.10;;;;;;;47.43;1.76;100093.16;5017983;28;20044;-69
2023/05/02 08:49:47;;;;;;;6.22;0.75;;;;;;;47.78;1.69;100095.34;5015018;28;20261;-70
2023/05/02 08:52:15;;;;;;;5.88;0.85;;;;;;;48.35;1.94;100091.56;5001095;28;20037;-70
2023/05/02 08:54:42;;;;;;;7.68;1.20;;;;;;;48.26;1.42;100087.47;5035439;28;20453;-70
2023/05/02 08:57:08;;;;;;;3.03;0.85;;;;;;;48.10;1.49;100076.59;5045463;28;20043;-71
2023/05/02 08:59:35;;;;;;;10.52;1.10;;;;;;;48.12;1.41;100084.66;5058899;28;20036;-71
2023/05/02 09:02:46;;;;;;;4.10;0.90;;;;;;;48.34;1.77;100080.69;5059840;28;20109;-70
2023/05/02 09:05:22;;;;;;;3.65;0.90;;;;;;;48.63;1.29;100085.19;5051069;28;20063;-70
2023/05/02 09:07:50;;;;;;;2.70;0.90;;;;;;;48.85;1.43;100083.97;5059453;28;20143;-75
2023/05/02 09:10:16;;;;;;;5.00;0.80;;;;;;;49.23;1.50;100085.97;5043394;28;20036;-74
2023/05/02 09:12:43;;;;;;;7.10;0.93;;;;;;;49.13;1.13;100075.50;5058336;28;20075;-74
2023/05/02 09:15:14;;;;;;;6.65;0.73;;;;;;;49.61;0.83;100076.59;5059507;28;20044;-73
2023/05/02 09:17:42;;;;;;;6.05;0.85;;;;;;;50.13;1.11;100074.78;5052481;28;20036;-75
2023/05/02 09:20:13;;;;;;;3.60;0.63;;;;;;;49.98;0.54;100068.38;5054079;28;20056;-74
2023/05/02 09:22:48;;;;;;;4.50;0.85;;;;;;;49.90;0.41;100066.81;5055193;28;20055;-74
2023/05/02 09:25:15;;;;;;;3.53;0.80;;;;;;;50.04;0.60;100061.09;5056122;28;20399;-74
2023/05/02 09:27:53;;;;;;;2.08;0.70;;;;;;;50.39;0.85;100055.25;5022604;28;20043;-74
2023/05/02 09:30:24;;;;;;;3.40;0.77;;;;;;;50.50;0.58;100058.00;5066284;28;20050;-74
2023/05/02 09:32:54;;;;;;;4.93;1.00;;;;;;;50.10;0.85;100055.84;5042397;28;20045;-74
2023/05/02 09:35:23;;;;;;;5.75;0.80;;;;;;;50.06;0.89;100043.72;5056011;28;20044;-74
2023/05/02 09:37:55;;;;;;;3.00;1.17;;;;;;;49.84;0.66;100037.38;5055945;28;20098;-75
2023/05/02 09:40:23;;;;;;;4.93;1.17;;;;;;;49.83;1.07;100044.25;5038896;28;20041;-75
2023/05/02 09:42:49;;;;;;;5.35;0.90;;;;;;;50.16;1.20;100040.03;5055299;28;20139;-75
2023/05/02 09:45:25;;;;;;;2.45;0.85;;;;;;;50.73;0.95;100043.28;5056309;28;20045;-75
2023/05/02 09:47:53;;;;;;;3.42;0.80;;;;;;;50.15;0.88;100044.88;5026465;28;20444;-73
2023/05/02 09:50:37;;;;;;;1.58;0.80;;;;;;;47.67;1.20;100033.34;5075274;28;20116;-75
2023/05/02 09:53:08;;;;;;;7.72;0.80;;;;;;;43.99;2.40;100023.19;5038533;28;20060;-75
2023/05/02 09:55:34;;;;;;;3.20;1.10;;;;;;;42.12;3.21;100017.91;5056420;28;20101;-75
2023/05/02 09:58:02;;;;;;;1.77;0.90;;;;;;;42.41;2.88;100011.13;5039034;28;20056;-77
2023/05/02 10:00:39;;;;;;;6.70;0.82;;;;;;;43.90;2.52;100017.03;5072302;28;20056;-75
2023/05/02 10:03:10;;;;;;;3.75;0.90;;;;;;;44.65;2.45;100009.63;5072735;28;20091;-77
2023/05/02 10:05:37;;;;;;;2.95;0.90;;;;;;;45.13;2.23;100000.38;5056787;28;20052;-76
2023/05/02 10:08:07;;;;;;;7.70;1.10;;;;;;;46.13;2.01;100009.69;5024141;28;20598;-74
2023/05/02 10:10:44;;;;;;;3.90;0.77;;;;;;;47.44;1.45;100018.75;5041883;28;20043;-77
2023/05/02 10:13:12;;;;;;;7.55;1.00;;;;;;;47.78;1.25;100004.44;5057741;28;20040;-76
2023/05/02 10:15:43;;;;;;;1.40;1.00;;;;;;;48.31;1.60;100017.47;5041804;28;20501;-76
2023/05/02 10:18:16;;;;;;;7.55;1.20;;;;;;;48.68;0.82;100003.00;5074959;28;20434;-77
2023/05/02 10:20:49;;;;;;;2.35;1.00;;;;;;;48.74;0.70;100004.19;5058131;28;20469;-77
2023/05/02 10:23:17;;;;;;;8.43;1.00;;;;;;;48.68;0.83;100003.81;5058042;28;20105;-76
2023/05/02 10:25:43;;;;;;;7.75;1.02;;;;;;;47.86;1.02;100004.03;5074739;28;20051;-75
2023/05/02 10:28:10;;;;;;;3.70;1.10;;;;;;;48.24;1.39;100008.97;5058368;28;20117;-77
2023/05/02 10:30:37;;;;;;;2.65;0.90;;;;;;;48.71;1.01;100005.00;5074204;28;20138;-76
2023/05/02 10:33:03;;;;;;;7.05;1.10;;;;;;;48.71;0.83;100008.63;5057527;28;20416;-74
2023/05/02 10:35:31;;;;;;;4.63;0.93;;;;;;;48.71;1.08;100008.63;5058461;28;20064;-77
2023/05/02 10:37:58;;;;;;;4.43;1.02;;;;;;;48.37;1.18;100003.75;5040062;28;20040;-77
2023/05/02 10:40:24;;;;;;;3.50;0.93;;;;;;;48.60;1.40;100007.81;5057861;28;20040;-74
2023/05/02 10:42:51;;;;;;;2.75;0.80;;;;;;;48.84;1.14;100001.34;5074527;28;20538;-74
2023/05/02 10:45:34;;;;;;;2.20;1.10;;;;;;;49.30;0.68;99994.81;5074062;28;20036;-75
2023/05/02 10:48:17;;;;;;;6.18;1.00;;;;;;;49.16;1.02;99998.50;5074809;28;20131;-76
2023/05/02 10:50:53;;;;;;;4.38;1.02;;;;;;;48.86;1.07;99992.47;5074248;28;20135;-77
2023/05/02 10:53:35;;;;;;;3.85;0.93;;;;;;;48.41;0.75;99977.19;5074533;28;20035;-77
2023/05/02 10:56:24;;;;;;;8.27;1.25;;;;;;;47.79;1.08;99978.69;5060263;28;20085;-76
2023/05/02 10:58:52;;;;;;;4.93;0.80;;;;;;;47.36;1.38;99977.69;5062259;28;20123;-77
2023/05/02 11:01:27;;;;;;;3.00;0.95;;;;;;;46.70;1.33;99978.09;5045250;28;20032;-76
2023/05/02 11:03:57;;;;;;;3.67;1.00;;;;;;;45.84;1.56;99968.44;5098817;28;20040;-77
2023/05/02 11:06:25;;;;;;;3.58;0.77;;;;;;;44.45;1.78;99966.03;5060474;28;20236;-78
2023/05/02 11:08:51;;;;;;;4.15;1.00;;;;;;;43.08;2.12;99960.47;5040998;28;20509;-77
2023/05/02 11:11:43;;;;;;;5.05;1.08;;;;;;;42.56;2.74;99955.25;5074134;28;20042;-76
2023/05/02 11:14:39;;;;;;;2.40;1.00;;;;;;;41.34;3.02;99956.25;5062095;28;20046;-78
2023/05/02 11:17:07;;;;;;;3.13;1.08;;;;;;;39.84;3.75;99950.09;5069567;28;20167;-75
2023/05/02 11:19:36;;;;;;;3.78;1.17;;;;;;;38.82;4.62;99930.66;5037431;28;20097;-75
2023/05/02 11:22:20;;;;;;;3.60;1.10;;;;;;;37.50;5.36;99925.41;5070824;28;20138;-76
2023/05/02 11:24:48;;;;;;;3.90;1.05;;;;;;;36.14;5.74;99936.19;5053886;28;20127;-75
2023/05/02 11:27:32;;;;;;;4.60;0.80;;;;;;;35.18;6.08;99927.53;5021047;28;20044;-75
2023/05/02 11:30:19;;;;;;;2.72;1.10;;;;;;;33.59;6.69;99926.91;5070727;28;20383;-75
2023/05/02 11:32:47;;;;;;;3.55;1.50;;;;;;;32.37;6.91;99924.25;5023417;28;20151;-75
2023/05/02 11:35:26;;;;;;;4.55;1.50;;;;;;;31.90;7.71;99924.22;5052784;28;20422;-74
2023/05/02 11:37:57;;;;;;;3.13;1.40;;;;;;;31.15;8.44;99927.56;5054237;28;20028;-74
2023/05/02 11:40:24;;;;;;;2.83;1.15;;;;;;;30.41;8.57;99903.00;5020714;28;20155;-75
2023/05/02 11:42:50;;;;;;;4.63;1.13;;;;;;;29.55;9.09;99920.66;5020812;28;20044;-75
2023/05/02 11:45:16;;;;;;;4.25;1.20;;;;;;;28.98;9.69;99907.19;5037953;28;20044;-75